Flight Track Log - Related Links

Times and Time Zones

All times are in EDT time to prevent confusion due to time zone crossing. See the ASQ4623 flight status page for this flight to view local times or setup timezone preferences in your user account.


Time Position Orientation Groundspeed Altitude Reporting Facility
EDT Latitude Longitude Course Direction KTS MPH feet Rate Location/Type
Fri 04:29:56 PM 41.3939 -81.8786 278° West 161 185 1,900  Level Cleveland Center
Fri 04:30:14 PM 41.3958 -81.8978 278° West 168 193 2,600 1,855 Climbing Cleveland Center
Fri 04:31:46 PM 41.4658 -81.9797 319° Northwest 277 319 5,300 2,092 Climbing Cleveland Center
Fri 04:32:46 PM 41.5342 -82.0117 341° North 266 306 7,900 2,300 Climbing Cleveland Center
Fri 04:33:46 PM 41.6033 -81.9772 20° North 258 297 9,900 1,800 Climbing Cleveland Center
Fri 04:34:46 PM 41.6567 -81.8728 56° Northeast 265 305 11,500 1,350 Climbing Cleveland Center
Fri 04:35:46 PM 41.7469 -81.8217 23° Northeast 308 354 12,600 1,100 Climbing Cleveland Center
Fri 04:36:46 PM 41.8453 -81.7733 20° North 354 407 13,700 1,250 Climbing Cleveland Center
Fri 04:37:46 PM 41.9458 -81.7222 21° North 382 440 15,100 1,400 Climbing Cleveland Center
Fri 04:38:46 PM 42.0486 -81.6708 20° North 388 447 16,500 1,300 Climbing Cleveland Center
Fri 04:39:46 PM 42.1492 -81.6139 23° Northeast 388 447 17,700 1,250 Climbing Cleveland Center
Fri 04:40:46 PM 42.2375 -81.5142 40° Northeast 393 452 19,000 1,150 Climbing Cleveland Center
Fri 04:41:46 PM 42.3133 -81.4172 43° Northeast 407 468 20,000 1,200 Climbing Cleveland Center
Fri 04:42:46 PM 42.3997 -81.3031 44° Northeast 422 486 21,400 1,350 Climbing Cleveland Center
Fri 04:43:46 PM 42.4878 -81.1942 42° Northeast 429 494 22,700 1,300 Climbing Cleveland Center
Fri 04:44:46 PM 42.5758 -81.0822 43° Northeast 429 494 24,000 1,250 Climbing Cleveland Center
Fri 04:45:46 PM 42.6658 -80.9614 45° Northeast 436 502 25,200 1,150 Climbing Cleveland Center
Fri 04:46:46 PM 42.7517 -80.8489 44° Northeast 431 496 26,300 1,154 Climbing Cleveland Center
Fri 04:48:22 PM 42.9000 -80.6333 47° Northeast 440 506 28,200 1,192 Climbing Toronto Center
Fri 04:49:22 PM 42.9833 -80.5167 46° Northeast 440 506 29,400 1,150 Climbing Toronto Center
Fri 04:50:22 PM 43.0667 -80.3833 49° Northeast 450 518 30,500 1,050 Climbing Toronto Center
Fri 04:51:22 PM 43.1667 -80.2667 40° Northeast 450 518 31,500 1,050 Climbing Toronto Center
Fri 04:52:22 PM 43.2500 -80.1667 41° Northeast 460 529 32,600 750 Climbing Toronto Center
Fri 04:53:22 PM 43.3500 -80.0167 47° Northeast 470 541 33,000 200 Climbing Toronto Center
Fri 04:54:22 PM 43.4500 -79.8833 44° Northeast 500 575 33,000  Level Toronto Center
Fri 04:55:22 PM 43.5500 -79.7500 44° Northeast 520 598 33,000  Level Toronto Center
Fri 04:56:22 PM 43.6500 -79.6167 44° Northeast 530 610 33,000  Level Toronto Center
Fri 04:57:22 PM 43.6833 -79.4000 78° East 530 610 33,000  Level Toronto Center
Fri 04:58:22 PM 43.7333 -79.2167 69° East 510 587 33,000  Level Toronto Center
Fri 04:59:22 PM 43.7667 -79.0333 76° East 510 587 33,000  Level Toronto Center
Fri 05:00:22 PM 43.8000 -78.8500 76° East 520 598 33,000  Level Toronto Center
Fri 05:01:22 PM 43.8500 -78.6333 72° East 530 610 33,000  Level Toronto Center
Fri 05:02:22 PM 43.8833 -78.4500 76° East 540 621 33,000  Level Toronto Center
Fri 05:03:22 PM 43.9667 -78.2500 60° Northeast 540 621 33,000  Level Toronto Center
Fri 05:04:22 PM 44.0167 -78.0833 67° East 540 621 33,000  Level Toronto Center
Fri 05:05:22 PM 44.0833 -77.8667 67° East 530 610 33,000  Level Toronto Center
Fri 05:06:22 PM 44.1500 -77.7000 61° Northeast 530 610 33,000  Level Toronto Center
Fri 05:07:22 PM 44.2167 -77.5167 63° Northeast 530 610 33,000  Level Toronto Center
Fri 05:08:22 PM 44.2667 -77.3333 69° East 530 610 33,000  Level Toronto Center
Fri 05:09:22 PM 44.3333 -77.1167 67° East 530 610 33,000  Level Toronto Center
Fri 05:10:22 PM 44.3833 -76.9500 67° East 530 610 33,000  Level Toronto Center
Fri 05:10:59 PM 44.4333 -76.8667 50° Northeast 530 610 33,000  Level Montreal Center
Fri 05:11:59 PM 44.4833 -76.6667 71° East 520 598 33,000  Level Montreal Center
Fri 05:12:59 PM 44.5500 -76.4833 63° Northeast 520 598 33,000  Level Montreal Center
Fri 05:13:59 PM 44.6000 -76.3000 69° East 520 598 33,000 -100 Level Montreal Center
Fri 05:14:59 PM 44.6667 -76.1167 63° Northeast 510 587 32,800 -750 Descending Montreal Center
Fri 05:15:59 PM 44.7167 -75.9500 67° East 500 575 31,500 -1,850 Descending Montreal Center
Fri 05:16:59 PM 44.7667 -75.7833 67° East 490 564 29,100 -2,600 Descending Montreal Center
Fri 05:17:59 PM 44.8333 -75.5833 65° Northeast 490 564 26,300 -2,550 Descending Montreal Center
Fri 05:18:59 PM 44.8833 -75.4167 67° East 480 552 24,000 -2,500 Descending Montreal Center
Fri 05:19:59 PM 44.9333 -75.2667 65° Northeast 460 529 21,300 -2,400 Descending Montreal Center
Fri 05:20:59 PM 44.9833 -75.1000 67° East 450 518 19,200 -2,350 Descending Montreal Center
Fri 05:21:59 PM 45.0333 -74.9333 67° East 440 506 16,600 -2,300 Descending Montreal Center
Fri 05:22:59 PM 45.0833 -74.7833 65° Northeast 420 483 14,600 -2,100 Descending Montreal Center
Fri 05:23:59 PM 45.1333 -74.6333 65° Northeast 400 460 12,400 -2,050 Descending Montreal Center
Fri 05:24:59 PM 45.1667 -74.5167 68° East 370 426 10,500 -1,850 Descending Montreal Center
Fri 05:25:59 PM 45.2000 -74.4000 68° East 300 345 8,700 -1,550 Descending Montreal Center
Fri 05:26:59 PM 45.2333 -74.2833 68° East 280 322 7,400 -1,100 Descending Montreal Center
Fri 05:27:59 PM 45.2500 -74.1833 77° East 260 299 6,500 -700 Descending Montreal Center
Fri 05:28:59 PM 45.2167 -74.0833 115° Southeast 230 265 6,000 -300 Descending Montreal Center
Fri 05:29:59 PM 45.2333 -74.0167 70° East 220 253 5,900 -700 Descending Montreal Center
Fri 05:30:59 PM 45.2833 -73.9667 35° Northeast 210 242 4,600 -1,100 Descending Montreal Center
Fri 05:31:59 PM 45.3333 -73.9167 35° Northeast 190 219 3,700 -1,050 Descending Montreal Center
Fri 05:32:59 PM 45.3667 -73.8667 46° Northeast 160 184 2,500 -1,000 Descending Montreal Center
Fri 05:33:59 PM 45.3833 -73.8167 65° Northeast 140 161 1,700 -750 Descending Montreal Center
Fri 05:34:59 PM 45.4167 -73.8000 19° North 130 150 1,000 -650 Descending Montreal Center
Fri 05:35:59 PM 45.4333 -73.7667 55° Northeast 120 138 400 -600 Descending Montreal Center

Login

Don't have an account? Register now (free) for customized features, flight alerts, and more!